createdAt,value
2022-09-16T00:01:13.533Z,4.57
2022-09-16T00:03:48.602Z,5.60
2022-09-16T00:06:25.666Z,5.57
2022-09-16T00:09:02.773Z,6.50
2022-09-16T00:11:38.205Z,6.80
2022-09-16T00:14:08.191Z,5.55
2022-09-16T00:16:47.040Z,6.10
2022-09-16T00:19:22.057Z,4.90
2022-09-16T00:22:00.404Z,4.45
2022-09-16T00:24:28.447Z,4.95
2022-09-16T00:26:55.772Z,4.97
2022-09-16T00:29:31.698Z,5.25
2022-09-16T00:32:04.232Z,4.68
2022-09-16T00:34:41.843Z,4.60
2022-09-16T00:37:23.527Z,12.23
2022-09-16T00:40:02.584Z,4.75
2022-09-16T00:42:43.737Z,6.93
2022-09-16T00:45:20.961Z,4.88
2022-09-16T00:48:09.409Z,4.75
2022-09-16T00:50:59.601Z,5.32
2022-09-16T00:53:42.921Z,6.40
2022-09-16T00:56:18.443Z,5.43
2022-09-16T00:59:02.565Z,6.25
2022-09-16T01:01:33.660Z,6.97
2022-09-16T01:04:10.476Z,7.25
2022-09-16T01:06:44.523Z,7.75
2022-09-16T01:09:25.924Z,7.55
2022-09-16T01:12:04.087Z,8.60
2022-09-16T01:14:52.651Z,8.07
2022-09-16T01:17:46.477Z,8.60
2022-09-16T01:20:37.728Z,8.48
2022-09-16T01:23:19.154Z,8.23
2022-09-16T01:26:16.493Z,10.05
2022-09-16T01:28:54.517Z,10.60
2022-09-16T01:34:31.548Z,9.90
2022-09-16T01:37:15.773Z,7.75
2022-09-16T01:40:16.131Z,6.80
2022-09-16T01:43:21.475Z,7.38
2022-09-16T01:46:00.151Z,7.63
2022-09-16T01:48:32.958Z,6.78
2022-09-16T01:51:12.085Z,7.03
2022-09-16T01:53:54.281Z,6.53
2022-09-16T01:56:30.262Z,9.23
2022-09-16T01:59:18.459Z,7.72
2022-09-16T02:02:11.638Z,9.82
2022-09-16T02:04:52.138Z,7.03
2022-09-16T02:07:34.549Z,6.43
2022-09-16T02:10:29.290Z,7.00
2022-09-16T02:13:13.251Z,6.68
2022-09-16T02:15:46.440Z,6.47
2022-09-16T02:18:21.538Z,7.18
2022-09-16T02:20:59.323Z,6.57
2022-09-16T02:23:33.471Z,7.40
2022-09-16T02:26:14.642Z,8.00
2022-09-16T02:28:50.874Z,10.77
2022-09-16T02:31:35.904Z,15.45
2022-09-16T02:34:27.812Z,18.73
2022-09-16T02:37:08.705Z,19.23
2022-09-16T02:39:46.670Z,25.15
2022-09-16T02:42:19.823Z,26.67
2022-09-16T02:44:58.211Z,27.17
2022-09-16T02:47:52.781Z,28.50
2022-09-16T02:51:02.680Z,28.38
2022-09-16T02:53:54.034Z,25.33
2022-09-16T02:56:37.754Z,24.02
2022-09-16T02:59:12.207Z,26.73
2022-09-16T03:01:55.874Z,24.55
2022-09-16T03:04:28.240Z,24.15
2022-09-16T03:07:11.407Z,26.70
2022-09-16T03:09:47.841Z,23.80
2022-09-16T03:12:42.046Z,22.30
2022-09-16T03:15:27.226Z,18.13
2022-09-16T03:18:27.799Z,17.23
2022-09-16T03:21:08.039Z,18.67
2022-09-16T03:23:44.453Z,15.25
2022-09-16T03:26:55.352Z,15.32
2022-09-16T03:29:45.973Z,14.82
2022-09-16T03:32:24.314Z,14.98
2022-09-16T03:35:11.215Z,15.02
2022-09-16T03:37:45.364Z,15.85
2022-09-16T03:40:15.802Z,15.88
2022-09-16T03:42:58.000Z,16.83
2022-09-16T03:45:35.893Z,14.48
2022-09-16T03:48:02.905Z,14.10
2022-09-16T03:50:41.388Z,15.48
2022-09-16T03:53:11.579Z,15.60
2022-09-16T03:55:43.833Z,16.73
2022-09-16T03:58:28.269Z,15.50
2022-09-16T04:01:09.679Z,18.15
2022-09-16T04:03:42.761Z,14.70
2022-09-16T04:06:17.612Z,19.38
2022-09-16T04:08:53.743Z,16.80
2022-09-16T04:11:27.938Z,15.50
2022-09-16T04:14:07.123Z,17.00
2022-09-16T04:16:42.938Z,18.02
2022-09-16T04:19:15.141Z,19.92
2022-09-16T04:21:59.404Z,21.52
2022-09-16T04:24:37.581Z,23.35
2022-09-16T04:27:10.626Z,23.95
2022-09-16T04:29:43.414Z,18.92
2022-09-16T04:32:22.992Z,19.23
2022-09-16T04:34:50.572Z,17.48
2022-09-16T04:37:23.103Z,23.52
2022-09-16T04:39:56.935Z,22.17
2022-09-16T04:42:34.028Z,19.48
2022-09-16T04:45:03.834Z,22.60
2022-09-16T04:47:33.098Z,22.33
2022-09-16T04:50:06.700Z,20.90
2022-09-16T04:52:37.113Z,21.67
2022-09-16T04:55:09.147Z,19.60
2022-09-16T04:57:50.293Z,20.42
2022-09-16T05:00:26.024Z,22.88
2022-09-16T05:03:01.400Z,18.38
2022-09-16T05:05:42.048Z,21.73
2022-09-16T05:08:09.030Z,15.82
2022-09-16T05:10:47.695Z,19.77
2022-09-16T05:13:26.471Z,17.33
2022-09-16T05:15:56.476Z,23.42
2022-09-16T05:18:38.273Z,19.40
2022-09-16T05:21:18.893Z,20.35
2022-09-16T05:23:55.818Z,19.20
2022-09-16T05:26:31.130Z,20.73
2022-09-16T05:29:05.669Z,23.17
2022-09-16T05:31:42.731Z,21.50
2022-09-16T05:34:15.037Z,20.40
2022-09-16T05:36:50.156Z,21.08
2022-09-16T05:39:24.014Z,16.80
2022-09-16T05:42:04.866Z,22.02
2022-09-16T05:44:45.243Z,17.20
2022-09-16T05:47:23.177Z,18.70
2022-09-16T05:50:01.002Z,19.23
2022-09-16T05:52:36.735Z,21.77
2022-09-16T05:55:07.330Z,19.58
2022-09-16T05:57:42.551Z,17.65
2022-09-16T06:00:10.443Z,23.70
2022-09-16T06:02:47.477Z,18.35
2022-09-16T06:05:17.281Z,17.83
2022-09-16T06:07:50.649Z,23.25
2022-09-16T06:10:23.147Z,19.40
2022-09-16T06:12:50.096Z,17.45
2022-09-16T06:15:21.031Z,15.60
2022-09-16T06:17:48.005Z,16.50
2022-09-16T06:20:27.805Z,15.23
2022-09-16T06:22:54.931Z,16.33
2022-09-16T06:25:30.484Z,20.35
2022-09-16T06:28:06.753Z,18.83
2022-09-16T06:30:41.279Z,18.50
2022-09-16T06:33:11.427Z,17.30
2022-09-16T06:35:44.092Z,18.80
2022-09-16T06:38:12.218Z,16.25
2022-09-16T06:40:43.568Z,16.70
2022-09-16T06:43:13.274Z,16.48
2022-09-16T06:45:46.338Z,17.92
2022-09-16T06:48:24.170Z,18.67
2022-09-16T06:51:04.449Z,16.30
2022-09-16T06:53:40.239Z,14.18
2022-09-16T06:56:26.516Z,17.55
2022-09-16T06:59:07.230Z,16.02
2022-09-16T07:01:44.364Z,14.05
2022-09-16T07:04:27.709Z,15.82
2022-09-16T07:07:12.381Z,18.05
2022-09-16T07:09:52.131Z,19.25
2022-09-16T07:12:19.846Z,14.20
2022-09-16T07:14:58.289Z,12.88
2022-09-16T07:17:39.419Z,16.77
2022-09-16T07:20:09.597Z,14.80
2022-09-16T07:22:38.169Z,13.88
2022-09-16T07:25:10.180Z,17.40
2022-09-16T07:27:40.495Z,11.93
2022-09-16T07:30:11.107Z,14.50
2022-09-16T07:32:40.532Z,17.23
2022-09-16T07:35:10.636Z,14.63
2022-09-16T07:37:42.438Z,14.23
2022-09-16T07:40:10.179Z,15.15
2022-09-16T07:42:40.088Z,19.88
2022-09-16T07:45:16.519Z,18.05
2022-09-16T07:47:43.744Z,18.48
2022-09-16T07:50:19.054Z,12.85
2022-09-16T07:52:55.261Z,12.23
2022-09-16T07:55:28.639Z,15.52
2022-09-16T08:00:53.401Z,10.57
2022-09-16T08:03:43.665Z,10.75
2022-09-16T08:06:16.568Z,12.95
2022-09-16T08:09:02.467Z,10.20
2022-09-16T08:11:45.801Z,9.45
2022-09-16T08:14:21.924Z,10.45
2022-09-16T08:16:51.701Z,7.90
2022-09-16T08:19:22.661Z,6.93
2022-09-16T08:21:54.804Z,7.82
2022-09-16T08:24:33.014Z,10.32
2022-09-16T08:27:17.425Z,6.90
2022-09-16T08:29:52.730Z,7.50
2022-09-16T08:32:35.598Z,7.25
2022-09-16T08:35:14.555Z,9.68
2022-09-16T08:37:53.441Z,8.57
2022-09-16T08:40:26.522Z,8.07
2022-09-16T08:43:02.256Z,11.13
2022-09-16T08:45:44.332Z,14.50
2022-09-16T08:48:32.369Z,9.60
2022-09-16T08:51:04.108Z,6.60
2022-09-16T08:53:48.897Z,8.68
2022-09-16T08:56:25.720Z,9.00
2022-09-16T08:59:01.361Z,10.65
2022-09-16T09:02:11.431Z,11.65
2022-09-16T09:04:49.777Z,8.95
2022-09-16T09:07:34.703Z,8.30
2022-09-16T09:10:43.259Z,7.57
2022-09-16T09:13:38.862Z,6.07
2022-09-16T09:16:42.924Z,8.13
2022-09-16T09:19:28.695Z,8.55
2022-09-16T09:22:20.398Z,10.98
2022-09-16T09:25:27.575Z,7.63
2022-09-16T09:28:26.108Z,7.75
2022-09-16T09:31:46.515Z,7.88
2022-09-16T09:34:52.211Z,6.22
2022-09-16T09:37:41.054Z,7.82
2022-09-16T09:40:18.039Z,5.65
2022-09-16T09:42:58.937Z,7.90
2022-09-16T09:45:33.436Z,7.72
2022-09-16T09:48:22.158Z,9.05
2022-09-16T09:51:02.852Z,7.28
2022-09-16T09:53:53.825Z,6.97
2022-09-16T09:56:51.564Z,5.32
2022-09-16T09:59:46.080Z,6.18
2022-09-16T10:02:34.643Z,7.00
2022-09-16T10:05:14.924Z,6.80
2022-09-16T10:07:45.351Z,5.85
2022-09-16T10:10:32.814Z,7.03
2022-09-16T10:13:15.079Z,4.25
2022-09-16T10:16:13.315Z,5.13
2022-09-16T10:18:44.535Z,7.75
2022-09-16T10:21:16.816Z,4.93
2022-09-16T10:23:58.355Z,3.53
2022-09-16T10:26:29.379Z,6.28
2022-09-16T10:29:16.871Z,4.38
2022-09-16T10:31:52.991Z,7.72
2022-09-16T10:34:42.431Z,6.55
2022-09-16T10:37:30.802Z,3.03
2022-09-16T10:40:07.842Z,4.30
2022-09-16T10:42:50.243Z,8.02
2022-09-16T10:45:39.708Z,3.60
2022-09-16T10:48:18.677Z,6.63
2022-09-16T10:50:57.191Z,5.75
2022-09-16T10:53:44.730Z,5.90
2022-09-16T10:56:23.530Z,2.47
2022-09-16T10:59:03.245Z,6.07
2022-09-16T11:01:46.725Z,4.18
2022-09-16T11:04:26.716Z,3.42
2022-09-16T11:07:26.769Z,3.80
2022-09-16T11:10:16.339Z,7.63
2022-09-16T11:13:28.051Z,6.18
2022-09-16T11:16:35.846Z,5.78
2022-09-16T11:19:41.567Z,4.65
2022-09-16T11:22:41.562Z,6.75
2022-09-16T11:25:28.108Z,6.88
2022-09-16T11:28:32.611Z,6.95
2022-09-16T11:31:35.738Z,4.28
2022-09-16T11:34:19.291Z,4.43
2022-09-16T11:37:28.151Z,9.00
2022-09-16T11:40:26.658Z,4.90
2022-09-16T11:43:21.445Z,5.95
2022-09-16T11:45:59.753Z,4.63
2022-09-16T11:48:48.727Z,6.05
2022-09-16T11:52:18.608Z,3.72
2022-09-16T11:54:57.769Z,3.30
2022-09-16T11:57:35.241Z,4.18
2022-09-16T12:00:26.539Z,4.22
2022-09-16T12:03:22.676Z,8.13
2022-09-16T12:06:06.698Z,6.20
2022-09-16T12:08:58.321Z,4.15
2022-09-16T12:11:35.993Z,4.45
2022-09-16T12:14:24.571Z,2.90
2022-09-16T12:17:18.494Z,5.70
2022-09-16T12:20:03.746Z,8.35
2022-09-16T12:23:09.432Z,5.60
2022-09-16T12:26:03.201Z,5.85
2022-09-16T12:28:37.178Z,6.93
2022-09-16T12:31:23.865Z,5.18
2022-09-16T12:34:03.914Z,5.38
2022-09-16T12:36:40.706Z,7.00
2022-09-16T12:39:15.827Z,4.38
2022-09-16T12:41:59.755Z,4.65
2022-09-16T12:47:59.080Z,5.63
2022-09-16T12:50:48.798Z,8.43
2022-09-16T12:53:46.690Z,4.82
2022-09-16T12:56:51.757Z,3.83
2022-09-16T12:59:40.090Z,7.03
2022-09-16T13:02:59.817Z,7.68
2022-09-16T13:05:38.100Z,4.30
2022-09-16T13:08:25.310Z,3.22
2022-09-16T13:11:35.566Z,6.85
2022-09-16T13:13:59.199Z,7.80
2022-09-16T13:16:38.550Z,7.28
2022-09-16T13:19:35.037Z,10.13
2022-09-16T13:22:31.780Z,6.45
2022-09-16T13:25:08.949Z,4.82
2022-09-16T13:28:06.830Z,4.03
2022-09-16T13:30:48.924Z,4.65
2022-09-16T13:33:29.715Z,5.65
2022-09-16T13:36:22.526Z,3.28
2022-09-16T13:39:10.407Z,5.78
2022-09-16T13:41:48.378Z,5.93
2022-09-16T13:44:43.004Z,5.60
2022-09-16T13:47:34.298Z,8.02
2022-09-16T13:50:24.604Z,3.95
2022-09-16T13:55:29.599Z,3.60
2022-09-16T13:58:24.319Z,3.17
2022-09-16T14:01:13.533Z,4.25
2022-09-16T14:04:22.205Z,3.50
2022-09-16T14:07:17.510Z,3.78
2022-09-16T14:10:26.485Z,3.22
2022-09-16T14:13:19.387Z,3.42
2022-09-16T14:15:58.386Z,2.83
2022-09-16T14:18:34.998Z,2.30
2022-09-16T14:21:27.548Z,2.53
2022-09-16T14:24:10.376Z,5.78
2022-09-16T14:26:37.473Z,2.92
2022-09-16T14:29:18.464Z,2.45
2022-09-16T14:31:52.096Z,6.75
2022-09-16T14:34:42.133Z,2.65
2022-09-16T14:37:21.210Z,6.53
2022-09-16T14:39:55.227Z,6.72
2022-09-16T14:42:30.360Z,4.20
2022-09-16T14:45:15.403Z,2.60
2022-09-16T14:47:58.175Z,3.85
2022-09-16T14:50:50.771Z,3.90
2022-09-16T14:54:08.639Z,5.65
2022-09-16T14:57:07.086Z,5.13
2022-09-16T14:59:43.052Z,6.38
2022-09-16T15:02:22.207Z,3.03
2022-09-16T15:05:00.249Z,6.47
2022-09-16T15:07:34.227Z,6.13
2022-09-16T15:10:24.758Z,3.15
2022-09-16T15:13:02.687Z,4.72
2022-09-16T15:15:35.348Z,5.90
2022-09-16T15:21:34.996Z,3.63
2022-09-16T15:24:18.437Z,4.63
2022-09-16T15:26:56.469Z,2.45
2022-09-16T15:29:26.379Z,3.60
2022-09-16T15:32:23.469Z,5.85
2022-09-16T15:35:31.620Z,5.68
2022-09-16T15:38:20.438Z,8.57
2022-09-16T15:41:12.067Z,4.72
2022-09-16T15:43:50.671Z,2.88
2022-09-16T15:46:31.175Z,5.65
2022-09-16T15:49:04.798Z,5.57
2022-09-16T15:51:49.396Z,3.03
2022-09-16T15:54:40.376Z,5.90
2022-09-16T15:57:48.864Z,3.78
2022-09-16T16:00:24.821Z,4.20
2022-09-16T16:03:06.999Z,5.22
2022-09-16T16:05:34.089Z,6.30
2022-09-16T16:08:19.251Z,4.45
2022-09-16T16:11:12.926Z,5.75
2022-09-16T16:13:51.357Z,5.72
2022-09-16T16:16:45.676Z,4.32
2022-09-16T16:19:29.225Z,4.40
2022-09-16T16:22:02.298Z,3.28
2022-09-16T16:24:40.777Z,4.38
2022-09-16T16:27:16.829Z,6.43
2022-09-16T16:29:50.957Z,4.90
2022-09-16T16:32:29.568Z,7.05
2022-09-16T16:34:59.740Z,5.90
2022-09-16T16:37:45.917Z,6.72
2022-09-16T16:40:24.494Z,4.32
2022-09-16T16:42:52.893Z,7.88
2022-09-16T16:45:21.117Z,5.68
2022-09-16T16:47:50.699Z,7.15
2022-09-16T16:50:27.937Z,7.32
2022-09-16T16:52:57.608Z,4.40
2022-09-16T16:55:36.311Z,5.18
2022-09-16T16:58:06.465Z,8.00
2022-09-16T17:00:51.006Z,3.45
2022-09-16T17:03:19.093Z,4.78
2022-09-16T17:05:46.046Z,7.30
2022-09-16T17:08:19.054Z,4.80
2022-09-16T17:10:46.950Z,7.28
2022-09-16T17:13:25.385Z,4.95
2022-09-16T17:15:55.232Z,5.00
2022-09-16T17:18:28.002Z,4.63
2022-09-16T17:21:04.574Z,4.70
2022-09-16T17:23:43.969Z,6.05
2022-09-16T17:26:25.578Z,7.57
2022-09-16T17:29:08.487Z,6.57
2022-09-16T17:31:41.737Z,8.45
2022-09-16T17:34:14.226Z,8.40
2022-09-16T17:37:03.653Z,6.55
2022-09-16T17:39:33.611Z,7.68
2022-09-16T17:42:11.866Z,10.82
2022-09-16T17:44:46.061Z,11.18
2022-09-16T17:47:44.521Z,10.57
2022-09-16T17:50:11.650Z,7.30
2022-09-16T17:52:49.853Z,6.05
2022-09-16T17:55:17.265Z,7.65
2022-09-16T17:57:59.245Z,6.53
2022-09-16T18:00:38.920Z,11.15
2022-09-16T18:03:09.978Z,6.72
2022-09-16T18:05:53.688Z,5.40
2022-09-16T18:08:24.046Z,6.28
2022-09-16T18:11:00.847Z,6.53
2022-09-16T18:13:35.248Z,6.38
2022-09-16T18:16:14.184Z,8.63
2022-09-16T18:18:51.204Z,8.30
2022-09-16T18:21:44.084Z,5.53
2022-09-16T18:24:17.407Z,6.18
2022-09-16T18:26:47.632Z,9.82
2022-09-16T18:29:16.695Z,6.38
2022-09-16T18:31:46.128Z,7.32
2022-09-16T18:34:21.641Z,5.35
2022-09-16T18:37:07.130Z,5.75
2022-09-16T18:39:37.028Z,7.55
2022-09-16T18:42:08.165Z,5.93
2022-09-16T18:44:40.488Z,5.40
2022-09-16T18:47:11.592Z,5.50
2022-09-16T18:49:38.603Z,8.07
2022-09-16T18:52:19.638Z,10.73
2022-09-16T18:54:49.505Z,6.38
2022-09-16T18:57:34.485Z,6.85
2022-09-16T19:00:01.804Z,5.00
2022-09-16T19:03:03.599Z,8.68
2022-09-16T19:05:30.541Z,6.32
2022-09-16T19:08:02.953Z,5.95
2022-09-16T19:10:41.117Z,5.72
2022-09-16T19:13:11.747Z,7.00
2022-09-16T19:15:41.805Z,5.55
2022-09-16T19:18:14.762Z,6.60
2022-09-16T19:20:44.815Z,8.07
2022-09-16T19:23:15.321Z,9.00
2022-09-16T19:25:50.990Z,8.23
2022-09-16T19:28:18.571Z,8.65
2022-09-16T19:30:46.637Z,6.95
2022-09-16T19:33:13.576Z,9.05
2022-09-16T19:35:43.633Z,10.63
2022-09-16T19:38:19.902Z,10.15
2022-09-16T19:40:50.552Z,7.07
2022-09-16T19:43:26.053Z,8.30
2022-09-16T19:45:56.991Z,8.63
2022-09-16T19:48:27.121Z,7.40
2022-09-16T19:51:11.475Z,8.30
2022-09-16T19:53:42.777Z,7.43
2022-09-16T19:56:16.309Z,6.97
2022-09-16T19:59:01.029Z,6.65
2022-09-16T20:01:33.370Z,5.28
2022-09-16T20:04:02.538Z,12.82
2022-09-16T20:06:52.441Z,8.93
2022-09-16T20:09:29.407Z,6.90
2022-09-16T20:11:59.212Z,5.93
2022-09-16T20:14:36.851Z,10.93
2022-09-16T20:17:04.036Z,8.35
2022-09-16T20:19:39.515Z,7.15
2022-09-16T20:22:16.223Z,6.63
2022-09-16T20:25:21.840Z,6.22
2022-09-16T20:28:03.840Z,9.90
2022-09-16T20:30:41.226Z,9.07
2022-09-16T20:33:08.273Z,7.45
2022-09-16T20:35:40.585Z,8.02
2022-09-16T20:38:18.609Z,7.45
2022-09-16T20:40:53.916Z,8.00
2022-09-16T20:43:20.982Z,8.40
2022-09-16T20:45:48.068Z,8.80
2022-09-16T20:48:28.360Z,11.02
2022-09-16T20:50:55.372Z,10.05
2022-09-16T20:53:25.283Z,8.32
2022-09-16T20:55:58.217Z,15.00
2022-09-16T20:58:39.862Z,12.02
2022-09-16T21:01:26.307Z,10.88
2022-09-16T21:04:08.098Z,8.50
2022-09-16T21:06:41.306Z,10.60
2022-09-16T21:09:15.798Z,13.93
2022-09-16T21:11:47.676Z,6.93
2022-09-16T21:14:16.914Z,7.72
2022-09-16T21:16:49.901Z,11.57
2022-09-16T21:19:25.879Z,8.27
2022-09-16T21:22:03.191Z,9.93
2022-09-16T21:24:30.429Z,9.00
2022-09-16T21:27:05.556Z,13.93
2022-09-16T21:29:42.566Z,15.43
2022-09-16T21:32:12.620Z,12.18
2022-09-16T21:34:42.763Z,8.85
2022-09-16T21:37:15.261Z,8.98
2022-09-16T21:39:47.896Z,10.35
2022-09-16T21:42:27.751Z,9.50
2022-09-16T21:45:06.151Z,8.20
2022-09-16T21:47:47.808Z,10.50
2022-09-16T21:50:23.521Z,12.02
2022-09-16T21:52:59.193Z,13.30
2022-09-16T21:55:34.592Z,12.18
2022-09-16T21:58:10.267Z,13.07
2022-09-16T22:00:42.739Z,12.68
2022-09-16T22:03:23.381Z,12.77
2022-09-16T22:05:58.768Z,11.30
2022-09-16T22:08:36.990Z,14.60
2022-09-16T22:11:18.440Z,11.70
2022-09-16T22:13:51.528Z,11.95
2022-09-16T22:16:29.681Z,12.60
2022-09-16T22:19:03.883Z,12.68
2022-09-16T22:21:43.525Z,13.90
2022-09-16T22:24:23.234Z,12.60
2022-09-16T22:27:06.192Z,11.20
2022-09-16T22:29:38.649Z,19.27
2022-09-16T22:32:16.873Z,14.38
2022-09-16T22:34:51.907Z,13.18
2022-09-16T22:37:27.086Z,13.73
2022-09-16T22:39:57.046Z,20.63
2022-09-16T22:42:37.196Z,12.65
2022-09-16T22:45:17.850Z,13.82
2022-09-16T22:47:48.308Z,14.18
2022-09-16T22:50:26.714Z,12.10
2022-09-16T22:53:02.037Z,12.68
2022-09-16T22:55:34.646Z,12.98
2022-09-16T22:58:11.642Z,12.45
2022-09-16T23:00:49.636Z,13.35
2022-09-16T23:03:29.035Z,13.07
2022-09-16T23:06:07.269Z,13.80
2022-09-16T23:08:49.512Z,14.57
2022-09-16T23:11:40.434Z,16.85
2022-09-16T23:14:19.324Z,14.32
2022-09-16T23:16:53.725Z,16.83
2022-09-16T23:19:29.499Z,15.50
2022-09-16T23:22:05.736Z,17.15
2022-09-16T23:24:47.804Z,18.15
2022-09-16T23:27:24.651Z,18.92
2022-09-16T23:30:04.472Z,19.83
2022-09-16T23:32:43.444Z,22.88
2022-09-16T23:35:14.112Z,23.35
2022-09-16T23:37:45.946Z,22.25
2022-09-16T23:40:21.585Z,22.75
2022-09-16T23:42:54.140Z,20.90
2022-09-16T23:45:30.078Z,21.10
2022-09-16T23:48:11.277Z,19.80
2022-09-16T23:50:46.931Z,20.13
2022-09-16T23:53:19.437Z,19.27
2022-09-16T23:55:54.800Z,19.65
2022-09-16T23:58:31.092Z,18.30
